createdAt,value
2022-10-30T00:00:04.506Z,0.00
2022-10-30T00:01:04.497Z,0.00
2022-10-30T00:02:04.680Z,0.00
2022-10-30T00:03:04.697Z,0.00
2022-10-30T00:04:04.472Z,0.00
2022-10-30T00:05:04.447Z,0.00
2022-10-30T00:06:04.516Z,0.00
2022-10-30T00:07:04.427Z,0.00
2022-10-30T00:08:04.432Z,0.00
2022-10-30T00:09:04.417Z,0.00
2022-10-30T00:10:04.397Z,0.00
2022-10-30T00:11:04.378Z,0.00
2022-10-30T00:12:04.368Z,0.00
2022-10-30T00:13:04.360Z,0.00
2022-10-30T00:14:04.410Z,0.00
2022-10-30T00:15:04.340Z,0.00
2022-10-30T00:16:04.329Z,0.00
2022-10-30T00:17:04.308Z,0.00
2022-10-30T00:18:04.314Z,0.00
2022-10-30T00:19:04.299Z,0.00
2022-10-30T00:20:04.312Z,0.00
2022-10-30T00:21:04.264Z,0.00
2022-10-30T00:22:33.724Z,0.00
2022-10-30T00:23:33.715Z,0.00
2022-10-30T00:24:33.696Z,0.00
2022-10-30T00:25:33.733Z,0.00
2022-10-30T00:26:33.694Z,0.00
2022-10-30T00:27:33.664Z,0.00
2022-10-30T00:28:33.646Z,0.00
2022-10-30T00:29:33.635Z,0.00
2022-10-30T00:30:33.649Z,0.00
2022-10-30T00:31:33.624Z,0.00
2022-10-30T00:32:33.663Z,0.00
2022-10-30T00:33:33.609Z,0.00
2022-10-30T00:34:33.609Z,0.00
2022-10-30T00:35:33.642Z,0.00
2022-10-30T00:36:33.557Z,0.00
2022-10-30T00:37:33.549Z,0.00
2022-10-30T00:38:33.598Z,0.00
2022-10-30T00:39:33.526Z,0.00
2022-10-30T00:40:33.520Z,0.00
2022-10-30T00:41:33.518Z,0.00
2022-10-30T00:42:33.492Z,0.00
2022-10-30T00:43:33.504Z,0.00
2022-10-30T00:44:33.498Z,0.00
2022-10-30T00:45:33.467Z,0.00
2022-10-30T00:46:33.440Z,0.00
2022-10-30T00:47:33.429Z,0.00
2022-10-30T00:48:33.418Z,0.00
2022-10-30T00:49:33.427Z,0.00
2022-10-30T00:50:33.441Z,0.00
2022-10-30T00:51:33.392Z,0.00
2022-10-30T00:52:33.371Z,0.00
2022-10-30T00:53:33.370Z,0.00
2022-10-30T00:54:33.386Z,0.00
2022-10-30T00:55:33.383Z,0.00
2022-10-30T00:56:33.340Z,0.00
2022-10-30T00:57:33.309Z,0.00
2022-10-30T00:58:33.308Z,0.00
2022-10-30T00:59:33.314Z,0.00
2022-10-30T01:00:33.272Z,0.00
2022-10-30T01:01:33.356Z,0.00
2022-10-30T01:02:33.348Z,0.00
2022-10-30T01:03:33.294Z,0.00
2022-10-30T01:04:33.234Z,0.00
2022-10-30T01:05:33.212Z,0.00
2022-10-30T01:06:33.214Z,0.00
2022-10-30T01:07:33.232Z,0.00
2022-10-30T01:08:33.292Z,0.00
2022-10-30T01:09:33.174Z,0.00
2022-10-30T01:10:33.166Z,0.00
2022-10-30T01:11:33.162Z,0.00
2022-10-30T01:12:33.133Z,0.00
2022-10-30T01:13:33.155Z,0.00
2022-10-30T01:14:33.112Z,0.00
2022-10-30T01:15:33.105Z,0.00
2022-10-30T01:16:33.083Z,0.00
2022-10-30T01:17:33.082Z,0.00
2022-10-30T01:18:33.068Z,0.00
2022-10-30T01:19:33.092Z,0.00
2022-10-30T01:20:33.042Z,0.00
2022-10-30T01:21:33.032Z,0.00
2022-10-30T01:22:33.015Z,0.00
2022-10-30T01:23:33.006Z,0.00
2022-10-30T01:24:33.024Z,0.00
2022-10-30T01:25:32.983Z,0.00
2022-10-30T01:26:32.986Z,0.00
2022-10-30T01:27:32.955Z,0.00
2022-10-30T01:28:32.947Z,0.00
2022-10-30T01:29:32.940Z,0.00
2022-10-30T01:30:32.936Z,0.00
2022-10-30T01:31:32.909Z,0.00
2022-10-30T01:32:32.906Z,0.00
2022-10-30T01:33:32.897Z,0.00
2022-10-30T01:34:32.960Z,0.00
2022-10-30T01:35:32.907Z,0.00
2022-10-30T01:36:32.867Z,0.00
2022-10-30T01:37:32.844Z,0.00
2022-10-30T01:38:32.828Z,0.00
2022-10-30T01:39:32.818Z,0.00
2022-10-30T01:40:32.858Z,0.00
2022-10-30T01:41:32.852Z,0.00
2022-10-30T01:42:32.812Z,0.00
2022-10-30T01:43:32.778Z,0.00
2022-10-30T01:44:32.779Z,0.00
2022-10-30T01:45:32.776Z,0.00
2022-10-30T01:46:32.748Z,0.00
2022-10-30T01:47:32.780Z,0.00
2022-10-30T01:48:32.750Z,0.00
2022-10-30T01:49:32.700Z,0.00
2022-10-30T01:50:32.708Z,0.00
2022-10-30T01:51:32.688Z,0.00
2022-10-30T01:52:32.672Z,0.00
2022-10-30T01:53:32.680Z,0.00
2022-10-30T01:54:32.659Z,0.00
2022-10-30T01:55:32.643Z,0.00
2022-10-30T01:56:32.621Z,0.00
2022-10-30T01:57:32.609Z,0.00
2022-10-30T01:58:32.631Z,0.00
2022-10-30T01:59:32.638Z,0.00
2022-10-30T02:00:32.583Z,0.00
2022-10-30T02:01:32.669Z,0.00
2022-10-30T02:02:32.680Z,0.00
2022-10-30T02:03:32.543Z,0.00
2022-10-30T02:04:32.539Z,0.00
2022-10-30T02:05:32.583Z,0.00
2022-10-30T02:06:32.537Z,0.00
2022-10-30T02:07:32.513Z,0.00
2022-10-30T02:08:32.495Z,0.00
2022-10-30T02:09:32.474Z,0.00
2022-10-30T02:10:32.454Z,0.00
2022-10-30T02:11:32.506Z,0.00
2022-10-30T02:12:32.452Z,0.00
2022-10-30T02:13:32.444Z,0.00
2022-10-30T02:14:32.422Z,0.00
2022-10-30T02:15:32.395Z,0.00
2022-10-30T02:16:32.447Z,0.00
2022-10-30T02:17:32.375Z,0.00
2022-10-30T02:18:32.420Z,0.00
2022-10-30T02:19:32.358Z,0.00
2022-10-30T02:20:32.352Z,0.00
2022-10-30T02:21:32.324Z,0.00
2022-10-30T02:22:32.419Z,0.00
2022-10-30T02:23:32.316Z,0.00
2022-10-30T02:24:32.308Z,0.00
2022-10-30T02:25:32.287Z,0.00
2022-10-30T02:26:32.266Z,0.00
2022-10-30T02:27:32.276Z,0.00
2022-10-30T02:28:32.282Z,0.00
2022-10-30T02:29:32.261Z,0.00
2022-10-30T02:30:32.236Z,0.00
2022-10-30T02:31:32.216Z,0.00
2022-10-30T02:32:32.198Z,0.00
2022-10-30T02:33:32.215Z,0.00
2022-10-30T02:34:32.181Z,0.00
2022-10-30T02:35:32.168Z,0.00
2022-10-30T02:36:32.154Z,0.00
2022-10-30T02:37:32.143Z,0.00
2022-10-30T02:38:32.128Z,0.00
2022-10-30T02:39:32.153Z,0.00
2022-10-30T02:40:32.122Z,0.00
2022-10-30T02:41:32.102Z,0.00
2022-10-30T02:42:32.087Z,0.00
2022-10-30T02:43:32.078Z,0.00
2022-10-30T02:44:32.081Z,0.00
2022-10-30T02:45:32.142Z,0.00
2022-10-30T02:46:32.041Z,0.00
2022-10-30T02:47:32.036Z,0.00
2022-10-30T02:48:32.039Z,0.00
2022-10-30T02:49:32.004Z,0.00
2022-10-30T02:50:32.000Z,0.00
2022-10-30T02:51:32.016Z,0.00
2022-10-30T02:52:31.973Z,0.00
2022-10-30T02:53:31.963Z,0.00
2022-10-30T02:54:31.945Z,0.00
2022-10-30T02:55:31.998Z,0.00
2022-10-30T02:56:31.985Z,0.00
2022-10-30T02:57:31.903Z,0.00
2022-10-30T02:58:31.917Z,0.00
2022-10-30T02:59:31.883Z,0.00
2022-10-30T03:00:31.875Z,0.00
2022-10-30T03:01:32.049Z,0.00
2022-10-30T03:02:31.913Z,0.00
2022-10-30T03:03:31.854Z,0.00
2022-10-30T03:04:31.847Z,0.00
2022-10-30T03:05:31.840Z,0.00
2022-10-30T03:06:31.813Z,0.00
2022-10-30T03:07:31.796Z,0.00
2022-10-30T03:08:31.829Z,0.00
2022-10-30T03:09:31.810Z,0.00
2022-10-30T03:10:31.780Z,0.00
2022-10-30T03:11:31.753Z,0.00
2022-10-30T03:12:31.747Z,0.00
2022-10-30T03:13:31.738Z,0.00
2022-10-30T03:14:31.736Z,0.00
2022-10-30T03:15:31.727Z,0.00
2022-10-30T03:16:31.696Z,0.00
2022-10-30T03:17:31.748Z,0.00
2022-10-30T03:18:31.664Z,0.00
2022-10-30T03:19:31.692Z,0.00
2022-10-30T03:20:31.639Z,0.00
2022-10-30T03:21:31.636Z,0.00
2022-10-30T03:22:31.624Z,0.00
2022-10-30T03:23:31.619Z,0.00
2022-10-30T03:24:31.587Z,0.00
2022-10-30T03:25:31.607Z,0.00
2022-10-30T03:26:31.579Z,0.00
2022-10-30T03:27:31.597Z,0.00
2022-10-30T03:28:31.566Z,0.00
2022-10-30T03:29:31.557Z,0.00
2022-10-30T03:30:31.533Z,0.00
2022-10-30T03:31:31.546Z,0.00
2022-10-30T03:32:31.514Z,0.00
2022-10-30T03:33:31.496Z,0.00
2022-10-30T03:34:31.562Z,0.00
2022-10-30T03:35:31.466Z,0.00
2022-10-30T03:36:31.504Z,0.00
2022-10-30T03:37:31.477Z,0.00
2022-10-30T03:38:31.456Z,0.00
2022-10-30T03:39:31.419Z,0.00
2022-10-30T03:40:31.420Z,0.00
2022-10-30T03:41:31.408Z,0.00
2022-10-30T03:42:31.410Z,0.00
2022-10-30T03:43:31.380Z,0.00
2022-10-30T03:44:31.359Z,0.00
2022-10-30T03:45:31.401Z,0.00
2022-10-30T03:46:31.343Z,0.00
2022-10-30T03:47:31.336Z,0.00
2022-10-30T03:48:31.379Z,0.00
2022-10-30T03:49:31.313Z,0.00
2022-10-30T03:50:31.332Z,0.00
2022-10-30T03:51:31.365Z,0.00
2022-10-30T03:52:31.274Z,0.00
2022-10-30T03:53:31.265Z,0.00
2022-10-30T03:54:31.283Z,0.00
2022-10-30T03:55:31.230Z,0.00
2022-10-30T03:56:31.248Z,0.00
2022-10-30T03:57:31.225Z,0.00
2022-10-30T03:58:31.209Z,0.00
2022-10-30T03:59:31.197Z,0.00
2022-10-30T04:00:31.245Z,0.00
2022-10-30T04:01:31.300Z,0.00
2022-10-30T04:02:31.162Z,0.00
2022-10-30T04:03:31.144Z,0.00
2022-10-30T04:04:31.147Z,0.00
2022-10-30T04:05:31.131Z,0.00
2022-10-30T04:06:31.133Z,0.00
2022-10-30T04:07:31.103Z,0.00
2022-10-30T04:08:31.084Z,0.00
2022-10-30T04:09:31.081Z,0.00
2022-10-30T04:10:31.078Z,0.00
2022-10-30T04:11:31.133Z,0.00
2022-10-30T04:12:31.085Z,0.00
2022-10-30T04:13:31.027Z,0.00
2022-10-30T04:14:31.036Z,0.00
2022-10-30T04:15:31.016Z,0.00
2022-10-30T04:16:30.998Z,0.00
2022-10-30T04:17:30.999Z,0.00
2022-10-30T04:18:30.997Z,0.00
2022-10-30T04:19:30.954Z,0.00
2022-10-30T04:20:30.945Z,0.00
2022-10-30T04:21:30.935Z,0.00
2022-10-30T04:22:30.936Z,0.00
2022-10-30T04:23:30.923Z,0.00
2022-10-30T04:24:30.921Z,0.00
2022-10-30T04:25:30.889Z,0.00
2022-10-30T04:26:30.879Z,0.00
2022-10-30T04:27:30.857Z,0.00
2022-10-30T04:28:30.855Z,0.00
2022-10-30T04:29:30.867Z,0.00
2022-10-30T04:30:30.829Z,0.00
2022-10-30T04:31:30.806Z,0.00
2022-10-30T04:32:30.811Z,0.00
2022-10-30T04:33:30.803Z,0.00
2022-10-30T04:34:30.785Z,0.00
2022-10-30T04:35:30.798Z,0.00
2022-10-30T04:36:30.769Z,0.00
2022-10-30T04:37:30.738Z,0.00
2022-10-30T04:38:30.750Z,0.00
2022-10-30T04:39:30.721Z,0.00
2022-10-30T04:40:30.709Z,0.00
2022-10-30T04:41:30.718Z,0.00
2022-10-30T04:42:30.696Z,0.00
2022-10-30T04:43:30.690Z,0.00
2022-10-30T04:44:30.693Z,0.00
2022-10-30T04:45:30.670Z,0.00
2022-10-30T04:46:30.667Z,0.00
2022-10-30T04:47:30.641Z,0.00
2022-10-30T04:48:30.620Z,0.00
2022-10-30T04:49:30.600Z,0.00
2022-10-30T04:50:30.612Z,0.00
2022-10-30T04:51:30.571Z,0.00
2022-10-30T04:52:30.589Z,0.00
2022-10-30T04:53:30.566Z,0.00
2022-10-30T04:54:30.551Z,0.00
2022-10-30T04:55:30.552Z,0.00
2022-10-30T04:56:30.533Z,0.00
2022-10-30T04:57:30.599Z,0.00
2022-10-30T04:58:30.512Z,0.00
2022-10-30T04:59:30.485Z,0.00
2022-10-30T05:00:30.525Z,0.00
2022-10-30T05:01:30.573Z,0.00
2022-10-30T05:02:30.607Z,0.00
2022-10-30T05:03:30.464Z,0.00
2022-10-30T05:04:30.484Z,0.00
2022-10-30T05:05:30.423Z,0.00
2022-10-30T05:06:30.398Z,0.00
2022-10-30T05:07:30.396Z,0.00
2022-10-30T05:08:30.372Z,0.00
2022-10-30T05:09:30.394Z,0.00
2022-10-30T05:10:30.373Z,0.00
2022-10-30T05:11:30.355Z,0.00
2022-10-30T05:12:30.356Z,0.00
2022-10-30T05:13:30.313Z,0.00
2022-10-30T05:14:30.420Z,0.00
2022-10-30T05:15:30.304Z,0.00
2022-10-30T05:16:30.331Z,0.00
2022-10-30T05:18:30.257Z,0.00
2022-10-30T05:19:30.256Z,0.00
2022-10-30T05:20:30.303Z,0.00
2022-10-30T05:21:30.236Z,0.00
2022-10-30T05:22:30.227Z,0.00
2022-10-30T05:23:30.219Z,0.00
2022-10-30T05:24:30.186Z,0.00
2022-10-30T05:25:30.192Z,0.00
2022-10-30T05:26:30.194Z,0.00
2022-10-30T05:27:30.160Z,0.00
2022-10-30T05:28:30.137Z,0.00
2022-10-30T05:29:30.148Z,0.00
2022-10-30T05:30:30.111Z,0.00
2022-10-30T05:31:30.169Z,0.00
2022-10-30T05:32:30.107Z,0.00
2022-10-30T05:33:30.090Z,0.00
2022-10-30T05:34:30.078Z,0.00
2022-10-30T05:35:30.078Z,0.00
2022-10-30T05:36:30.067Z,0.00
2022-10-30T05:37:30.077Z,0.00
2022-10-30T05:38:30.037Z,0.00
2022-10-30T05:39:30.030Z,0.00
2022-10-30T05:40:30.010Z,0.00
2022-10-30T05:41:30.009Z,0.00
2022-10-30T05:42:30.008Z,0.00
2022-10-30T05:43:30.014Z,0.00
2022-10-30T05:44:58.761Z,0.00
2022-10-30T05:45:30.963Z,0.00
2022-10-30T05:46:30.248Z,0.00
2022-10-30T05:47:29.962Z,0.00
2022-10-30T05:48:29.940Z,0.00
2022-10-30T05:49:29.911Z,0.00
2022-10-30T05:50:29.900Z,0.00
2022-10-30T05:51:29.921Z,0.00
2022-10-30T05:52:29.861Z,0.00
2022-10-30T05:53:29.862Z,0.00
2022-10-30T05:54:29.915Z,0.00
2022-10-30T05:55:29.852Z,0.00
2022-10-30T05:56:29.816Z,0.00
2022-10-30T05:57:29.815Z,0.00
2022-10-30T05:58:29.815Z,0.00
2022-10-30T05:59:29.795Z,0.00
2022-10-30T06:00:29.819Z,0.00
2022-10-30T06:01:29.877Z,0.00
2022-10-30T06:02:29.791Z,0.00
2022-10-30T06:03:29.775Z,0.00
2022-10-30T06:04:29.723Z,0.00
2022-10-30T06:05:29.714Z,0.00
2022-10-30T06:06:29.717Z,0.00
2022-10-30T06:07:29.685Z,0.00
2022-10-30T06:08:29.681Z,0.00
2022-10-30T06:09:29.696Z,0.00
2022-10-30T06:10:29.664Z,0.00
2022-10-30T06:11:29.635Z,0.00
2022-10-30T06:12:29.658Z,0.00
2022-10-30T06:13:29.614Z,0.00
2022-10-30T06:14:29.594Z,0.00
2022-10-30T06:15:29.624Z,0.00
2022-10-30T06:16:29.601Z,0.00
2022-10-30T06:17:29.590Z,0.00
2022-10-30T06:18:29.576Z,0.00
2022-10-30T06:19:29.566Z,0.00
2022-10-30T06:20:29.584Z,0.00
2022-10-30T06:21:29.515Z,5.62
2022-10-30T06:22:29.507Z,5.62
2022-10-30T06:23:29.548Z,5.62
2022-10-30T06:24:29.485Z,5.62
2022-10-30T06:25:29.499Z,5.62
2022-10-30T06:26:29.476Z,5.62
2022-10-30T06:27:29.456Z,5.62
2022-10-30T06:28:29.457Z,5.62
2022-10-30T06:29:29.514Z,5.62
2022-10-30T06:30:29.434Z,5.62
2022-10-30T06:31:29.407Z,11.25
2022-10-30T06:32:29.390Z,11.25
2022-10-30T06:33:29.436Z,11.25
2022-10-30T06:34:29.379Z,11.25
2022-10-30T06:35:29.433Z,11.25
2022-10-30T06:36:29.347Z,11.25
2022-10-30T06:37:29.344Z,11.25
2022-10-30T06:38:29.342Z,16.88
2022-10-30T06:39:29.318Z,16.88
2022-10-30T06:40:29.329Z,16.88
2022-10-30T06:41:30.553Z,16.88
2022-10-30T06:42:29.289Z,16.88
2022-10-30T06:43:29.280Z,16.88
2022-10-30T06:44:29.252Z,16.88
2022-10-30T06:45:29.239Z,22.50
2022-10-30T06:46:33.385Z,22.50
2022-10-30T06:47:29.221Z,22.50
2022-10-30T06:48:29.256Z,22.50
2022-10-30T06:49:29.201Z,22.50
2022-10-30T06:50:29.180Z,22.50
2022-10-30T06:51:29.191Z,22.50
2022-10-30T06:52:29.159Z,22.50
2022-10-30T06:53:29.144Z,28.12
2022-10-30T06:54:29.127Z,28.12
2022-10-30T06:55:29.132Z,28.12
2022-10-30T06:56:29.152Z,28.12
2022-10-30T06:57:29.133Z,28.12
2022-10-30T06:58:29.118Z,28.12
2022-10-30T06:59:29.150Z,33.75
2022-10-30T07:00:29.097Z,33.75
2022-10-30T07:01:29.064Z,33.75
2022-10-30T07:02:29.212Z,33.75
2022-10-30T07:03:29.024Z,39.38
2022-10-30T07:04:29.026Z,39.38
2022-10-30T07:05:29.014Z,39.38
2022-10-30T07:06:28.986Z,45.00
2022-10-30T07:07:28.998Z,45.00
2022-10-30T07:08:29.108Z,50.62
2022-10-30T07:09:28.956Z,50.62
2022-10-30T07:10:29.079Z,50.62
2022-10-30T07:11:28.960Z,50.62
2022-10-30T07:12:28.922Z,50.62
2022-10-30T07:13:28.909Z,56.25
2022-10-30T07:14:29.085Z,56.25
2022-10-30T07:15:28.960Z,56.25
2022-10-30T07:16:28.878Z,56.25
2022-10-30T07:17:28.915Z,61.88
2022-10-30T07:18:28.846Z,61.88
2022-10-30T07:19:28.841Z,61.88
2022-10-30T07:20:28.912Z,61.88
2022-10-30T07:21:28.934Z,61.88
2022-10-30T07:22:28.805Z,67.50
2022-10-30T07:23:28.806Z,67.50
2022-10-30T07:24:28.789Z,67.50
2022-10-30T07:25:28.806Z,67.50
2022-10-30T07:26:28.761Z,67.50
2022-10-30T07:27:28.746Z,73.12
2022-10-30T07:28:28.738Z,73.12
2022-10-30T07:29:28.736Z,78.75
2022-10-30T07:30:28.738Z,78.75
2022-10-30T07:31:41.601Z,78.75
2022-10-30T07:32:29.688Z,78.75
2022-10-30T07:33:28.682Z,84.38
2022-10-30T07:34:28.689Z,84.38
2022-10-30T07:35:28.658Z,84.38
2022-10-30T07:36:28.649Z,84.38
2022-10-30T07:37:28.658Z,84.38
2022-10-30T07:38:28.625Z,90.00
2022-10-30T07:39:28.599Z,90.00
2022-10-30T07:40:28.684Z,95.62
2022-10-30T07:41:28.582Z,101.25
2022-10-30T07:42:28.569Z,106.88
2022-10-30T07:43:28.580Z,106.88
2022-10-30T07:44:28.551Z,106.88
2022-10-30T07:45:28.533Z,106.88
2022-10-30T07:46:28.537Z,106.88
2022-10-30T07:47:28.510Z,112.50
2022-10-30T07:48:28.530Z,112.50
2022-10-30T07:49:28.488Z,112.50
2022-10-30T07:50:28.605Z,112.50
2022-10-30T07:51:28.472Z,112.50
2022-10-30T07:52:28.461Z,118.12
2022-10-30T07:53:28.447Z,118.12
2022-10-30T07:54:28.453Z,118.12
2022-10-30T07:55:28.421Z,118.12
2022-10-30T07:56:28.411Z,118.12
2022-10-30T07:57:28.403Z,118.12
2022-10-30T07:58:28.382Z,118.12
2022-10-30T07:59:28.447Z,118.12
2022-10-30T08:00:28.454Z,123.75
2022-10-30T08:01:28.478Z,123.75
2022-10-30T08:02:28.603Z,123.75
2022-10-30T08:03:28.593Z,129.38
2022-10-30T08:04:28.327Z,129.38
2022-10-30T08:05:29.963Z,129.38
2022-10-30T08:06:28.312Z,129.38
2022-10-30T08:07:28.276Z,129.38
2022-10-30T08:08:28.276Z,129.38
2022-10-30T08:09:28.256Z,129.38
2022-10-30T08:10:28.279Z,129.38
2022-10-30T08:11:28.265Z,129.38
2022-10-30T08:12:28.235Z,129.38
2022-10-30T08:13:28.239Z,129.38
2022-10-30T08:14:28.194Z,123.75
2022-10-30T08:15:28.226Z,129.38
2022-10-30T08:16:28.191Z,129.38
2022-10-30T08:17:28.217Z,129.38
2022-10-30T08:18:28.173Z,118.12
2022-10-30T08:19:28.153Z,123.75
2022-10-30T08:20:28.128Z,118.12
2022-10-30T08:21:28.107Z,123.75
2022-10-30T08:22:28.100Z,118.12
2022-10-30T08:23:28.139Z,123.75
2022-10-30T08:24:28.091Z,135.00
2022-10-30T08:25:28.069Z,135.00
2022-10-30T08:26:28.066Z,135.00
2022-10-30T08:27:28.117Z,123.75
2022-10-30T08:28:31.674Z,123.75
2022-10-30T08:29:28.026Z,135.00
2022-10-30T08:30:28.115Z,129.38
2022-10-30T08:31:28.001Z,129.38
2022-10-30T08:32:27.999Z,129.38
2022-10-30T08:33:27.996Z,118.12
2022-10-30T08:34:28.005Z,112.50
2022-10-30T08:35:27.997Z,118.12
2022-10-30T08:36:27.941Z,118.12
2022-10-30T08:37:27.951Z,123.75
2022-10-30T08:38:27.929Z,123.75
2022-10-30T08:39:28.092Z,123.75
2022-10-30T08:40:27.902Z,129.38
2022-10-30T08:41:27.881Z,129.38
2022-10-30T08:42:27.865Z,135.00
2022-10-30T08:43:27.870Z,140.62
2022-10-30T08:44:27.931Z,140.62
2022-10-30T08:45:30.956Z,146.25
2022-10-30T08:46:27.824Z,146.25
2022-10-30T08:47:27.833Z,146.25
2022-10-30T08:48:27.793Z,146.25
2022-10-30T08:49:27.812Z,146.25
2022-10-30T08:50:27.782Z,140.62
2022-10-30T08:51:27.815Z,135.00
2022-10-30T08:52:27.767Z,135.00
2022-10-30T08:53:27.742Z,135.00
2022-10-30T08:54:27.731Z,135.00
2022-10-30T08:55:27.719Z,135.00
2022-10-30T08:56:27.746Z,140.62
2022-10-30T08:57:27.696Z,140.62
2022-10-30T08:58:27.678Z,146.25
2022-10-30T08:59:27.710Z,140.62
2022-10-30T09:00:27.656Z,140.62
2022-10-30T09:01:27.817Z,140.62
2022-10-30T09:02:27.814Z,146.25
2022-10-30T09:03:27.635Z,151.88
2022-10-30T09:04:27.625Z,151.88
2022-10-30T09:05:27.617Z,157.50
2022-10-30T09:06:27.607Z,157.50
2022-10-30T09:07:27.588Z,157.50
2022-10-30T09:08:27.617Z,157.50
2022-10-30T09:09:27.566Z,151.88
2022-10-30T09:10:27.550Z,140.62
2022-10-30T09:11:27.580Z,157.50
2022-10-30T09:12:27.537Z,163.12
2022-10-30T09:13:27.520Z,163.12
2022-10-30T09:14:27.639Z,163.12
2022-10-30T09:15:27.499Z,157.50
2022-10-30T09:16:27.482Z,135.00
2022-10-30T09:17:27.462Z,157.50
2022-10-30T09:18:27.448Z,157.50
2022-10-30T09:19:27.474Z,146.25
2022-10-30T09:20:27.449Z,140.62
2022-10-30T09:21:27.428Z,135.00
2022-10-30T09:22:27.411Z,135.00
2022-10-30T09:23:27.708Z,146.25
2022-10-30T09:24:27.392Z,157.50
2022-10-30T09:25:27.369Z,163.12
2022-10-30T09:26:27.391Z,163.12
2022-10-30T09:27:27.341Z,157.50
2022-10-30T09:28:27.349Z,157.50
2022-10-30T09:29:27.343Z,157.50
2022-10-30T09:30:27.321Z,163.12
2022-10-30T09:31:27.329Z,151.88
2022-10-30T09:32:27.312Z,129.38
2022-10-30T09:33:27.295Z,151.88
2022-10-30T09:35:27.263Z,163.12
2022-10-30T09:36:27.244Z,140.62
2022-10-30T09:37:27.280Z,163.12
2022-10-30T09:38:27.222Z,163.12
2022-10-30T09:39:27.253Z,163.12
2022-10-30T09:40:27.204Z,157.50
2022-10-30T09:41:27.186Z,151.88
2022-10-30T09:42:27.184Z,151.88
2022-10-30T09:43:27.206Z,140.62
2022-10-30T09:44:27.145Z,146.25
2022-10-30T09:45:30.053Z,146.25
2022-10-30T09:46:27.124Z,151.88
2022-10-30T09:47:27.116Z,157.50
2022-10-30T09:48:27.138Z,168.75
2022-10-30T09:49:27.117Z,168.75
2022-10-30T09:50:27.112Z,168.75
2022-10-30T09:51:27.109Z,163.12
2022-10-30T09:52:27.071Z,168.75
2022-10-30T09:53:27.056Z,163.12
2022-10-30T09:54:27.057Z,168.75
2022-10-30T09:55:27.033Z,174.38
2022-10-30T09:56:27.018Z,168.75
2022-10-30T09:57:27.011Z,163.12
2022-10-30T09:58:26.998Z,168.75
2022-10-30T09:59:26.999Z,168.75
2022-10-30T10:00:26.995Z,163.12
2022-10-30T10:01:27.096Z,163.12
2022-10-30T10:02:27.073Z,157.50
2022-10-30T10:03:26.926Z,163.12
2022-10-30T10:04:27.342Z,157.50
2022-10-30T10:05:26.969Z,163.12
2022-10-30T10:06:26.892Z,157.50
2022-10-30T10:07:26.888Z,157.50
2022-10-30T10:08:26.883Z,163.12
2022-10-30T10:09:26.858Z,163.12
2022-10-30T10:10:26.850Z,163.12
2022-10-30T10:11:26.873Z,168.75
2022-10-30T10:12:26.860Z,174.38
2022-10-30T10:13:26.831Z,174.38
2022-10-30T10:14:26.814Z,180.00
2022-10-30T10:15:26.793Z,180.00
2022-10-30T10:16:26.792Z,180.00
2022-10-30T10:17:26.781Z,180.00
2022-10-30T10:18:26.819Z,180.00
2022-10-30T10:19:26.733Z,180.00
2022-10-30T10:20:26.732Z,180.00
2022-10-30T10:21:26.715Z,180.00
2022-10-30T10:22:26.736Z,180.00
2022-10-30T10:23:26.693Z,174.38
2022-10-30T10:24:26.693Z,174.38
2022-10-30T10:25:26.676Z,174.38
2022-10-30T10:26:26.675Z,174.38
2022-10-30T10:27:26.645Z,168.75
2022-10-30T10:28:29.003Z,168.75
2022-10-30T10:29:26.640Z,168.75
2022-10-30T10:30:26.639Z,174.38
2022-10-30T10:31:26.605Z,174.38
2022-10-30T10:32:26.586Z,174.38
2022-10-30T10:33:26.623Z,174.38
2022-10-30T10:34:26.771Z,174.38
2022-10-30T10:35:26.559Z,180.00
2022-10-30T10:36:26.546Z,180.00
2022-10-30T10:37:26.547Z,174.38
2022-10-30T10:38:26.531Z,168.75
2022-10-30T10:39:26.518Z,168.75
2022-10-30T10:40:26.518Z,168.75
2022-10-30T10:41:26.489Z,163.12
2022-10-30T10:42:26.471Z,168.75
2022-10-30T10:43:26.474Z,163.12
2022-10-30T10:44:26.448Z,157.50
2022-10-30T10:45:26.478Z,163.12
2022-10-30T10:46:26.432Z,151.88
2022-10-30T10:47:26.428Z,151.88
2022-10-30T10:48:26.417Z,163.12
2022-10-30T10:49:26.409Z,163.12
2022-10-30T10:50:26.390Z,163.12
2022-10-30T10:51:26.401Z,163.12
2022-10-30T10:52:26.398Z,168.75
2022-10-30T10:53:26.362Z,168.75
2022-10-30T10:54:26.332Z,163.12
2022-10-30T10:55:26.324Z,163.12
2022-10-30T10:56:26.342Z,157.50
2022-10-30T10:57:26.323Z,157.50
2022-10-30T10:58:26.305Z,151.88
2022-10-30T10:59:26.294Z,146.25
2022-10-30T11:00:26.276Z,140.62
2022-10-30T11:01:26.415Z,135.00
2022-10-30T11:02:26.553Z,123.75
2022-10-30T11:03:26.249Z,129.38
2022-10-30T11:04:26.232Z,140.62
2022-10-30T11:05:26.231Z,151.88
2022-10-30T11:06:26.217Z,151.88
2022-10-30T11:07:26.185Z,157.50
2022-10-30T11:08:26.215Z,157.50
2022-10-30T11:09:26.167Z,157.50
2022-10-30T11:10:26.156Z,157.50
2022-10-30T11:11:26.146Z,157.50
2022-10-30T11:12:28.517Z,157.50
2022-10-30T11:13:26.214Z,157.50
2022-10-30T11:14:26.117Z,157.50
2022-10-30T11:15:26.117Z,157.50
2022-10-30T11:16:26.087Z,163.12
2022-10-30T11:17:26.113Z,163.12
2022-10-30T11:18:26.090Z,157.50
2022-10-30T11:19:26.090Z,157.50
2022-10-30T11:20:26.051Z,163.12
2022-10-30T11:21:26.040Z,168.75
2022-10-30T11:22:26.039Z,168.75
2022-10-30T11:23:26.006Z,168.75
2022-10-30T11:24:25.997Z,168.75
2022-10-30T11:25:30.360Z,168.75
2022-10-30T11:26:26.975Z,174.38
2022-10-30T11:27:25.969Z,174.38
2022-10-30T11:28:25.950Z,174.38
2022-10-30T11:29:26.650Z,168.75
2022-10-30T11:30:25.969Z,168.75
2022-10-30T11:31:25.922Z,174.38
2022-10-30T11:32:25.928Z,174.38
2022-10-30T11:33:25.894Z,174.38
2022-10-30T11:34:25.902Z,168.75
2022-10-30T11:35:25.874Z,174.38
2022-10-30T11:36:25.896Z,168.75
2022-10-30T11:37:25.844Z,163.12
2022-10-30T11:38:25.842Z,168.75
2022-10-30T11:39:25.821Z,168.75
2022-10-30T11:40:25.810Z,168.75
2022-10-30T11:41:25.813Z,168.75
2022-10-30T11:42:25.844Z,157.50
2022-10-30T11:43:25.779Z,157.50
2022-10-30T11:44:25.784Z,157.50
2022-10-30T11:45:25.744Z,157.50
2022-10-30T11:46:25.745Z,151.88
2022-10-30T11:47:25.760Z,151.88
2022-10-30T11:48:26.073Z,151.88
2022-10-30T11:49:25.723Z,146.25
2022-10-30T11:50:25.686Z,146.25
2022-10-30T11:51:25.731Z,157.50
2022-10-30T11:52:25.658Z,157.50
2022-10-30T11:53:25.661Z,157.50
2022-10-30T11:54:25.658Z,151.88
2022-10-30T11:55:25.640Z,151.88
2022-10-30T11:56:25.608Z,151.88
2022-10-30T11:57:25.605Z,157.50
2022-10-30T11:58:25.588Z,157.50
2022-10-30T11:59:25.611Z,163.12
2022-10-30T12:00:25.568Z,163.12
2022-10-30T12:01:25.591Z,163.12
2022-10-30T12:02:25.590Z,168.75
2022-10-30T12:03:25.554Z,163.12
2022-10-30T12:04:25.524Z,168.75
2022-10-30T12:05:25.560Z,168.75
2022-10-30T12:06:25.497Z,163.12
2022-10-30T12:07:25.488Z,151.88
2022-10-30T12:08:25.472Z,151.88
2022-10-30T12:09:25.491Z,146.25
2022-10-30T12:10:25.449Z,151.88
2022-10-30T12:11:25.453Z,140.62
2022-10-30T12:12:25.421Z,146.25
2022-10-30T12:13:25.432Z,146.25
2022-10-30T12:14:25.392Z,146.25
2022-10-30T12:15:25.395Z,146.25
2022-10-30T12:16:25.408Z,146.25
2022-10-30T12:17:25.403Z,151.88
2022-10-30T12:18:25.436Z,146.25
2022-10-30T12:19:25.393Z,146.25
2022-10-30T12:20:25.341Z,140.62
2022-10-30T12:21:25.348Z,140.62
2022-10-30T12:22:25.325Z,135.00
2022-10-30T12:23:25.303Z,135.00
2022-10-30T12:24:25.297Z,135.00
2022-10-30T12:25:25.275Z,140.62
2022-10-30T12:26:25.257Z,140.62
2022-10-30T12:27:25.266Z,140.62
2022-10-30T12:28:25.283Z,140.62
2022-10-30T12:29:36.485Z,146.25
2022-10-30T12:30:26.217Z,157.50
2022-10-30T12:31:25.190Z,163.12
2022-10-30T12:32:25.220Z,157.50
2022-10-30T12:33:25.209Z,163.12
2022-10-30T12:34:25.158Z,163.12
2022-10-30T12:35:25.161Z,163.12
2022-10-30T12:36:25.137Z,163.12
2022-10-30T12:37:25.129Z,163.12
2022-10-30T12:38:25.123Z,163.12
2022-10-30T12:39:25.149Z,163.12
2022-10-30T12:40:25.088Z,163.12
2022-10-30T12:41:26.042Z,163.12
2022-10-30T12:42:25.069Z,168.75
2022-10-30T12:43:25.065Z,163.12
2022-10-30T12:44:25.061Z,163.12
2022-10-30T12:45:25.080Z,163.12
2022-10-30T12:46:25.052Z,163.12
2022-10-30T12:47:25.011Z,151.88
2022-10-30T12:48:25.028Z,157.50
2022-10-30T12:49:24.982Z,157.50
2022-10-30T12:50:24.975Z,151.88
2022-10-30T12:51:25.028Z,151.88
2022-10-30T12:52:24.943Z,146.25
2022-10-30T12:53:24.934Z,135.00
2022-10-30T12:54:24.943Z,140.62
2022-10-30T12:55:24.914Z,135.00
2022-10-30T12:56:24.914Z,146.25
2022-10-30T12:57:24.903Z,146.25